createdAt,value
2023-01-09T00:01:00.000Z,4.5
2023-01-09T00:04:32.000Z,5.3
2023-01-09T00:08:05.000Z,4
2023-01-09T00:11:38.000Z,4.6
2023-01-09T00:14:29.000Z,5.4
2023-01-09T00:18:01.000Z,5.9
2023-01-09T00:21:34.000Z,5.5
2023-01-09T00:25:07.000Z,5.9
2023-01-09T00:28:39.000Z,6.3
2023-01-09T00:32:12.000Z,6.3
2023-01-09T00:35:44.000Z,7.7
2023-01-09T00:39:17.000Z,6.9
2023-01-09T00:42:50.000Z,5.8
2023-01-09T00:46:22.000Z,6.8
2023-01-09T00:49:55.000Z,5.9
2023-01-09T00:52:46.000Z,6.8
2023-01-09T00:56:19.000Z,5.9
2023-01-09T00:59:51.000Z,5.5
2023-01-09T01:03:24.000Z,6.6
2023-01-09T01:06:57.000Z,5.7
2023-01-09T01:10:29.000Z,5.7
2023-01-09T01:14:02.000Z,7.6
2023-01-09T01:17:35.000Z,5.6
2023-01-09T01:21:07.000Z,6.6
2023-01-09T01:24:40.000Z,5.8
2023-01-09T01:28:12.000Z,4.2
2023-01-09T01:31:03.000Z,4.7
2023-01-09T01:34:36.000Z,4.5
2023-01-09T01:38:11.000Z,4
2023-01-09T01:41:44.000Z,5.4
2023-01-09T01:45:16.000Z,4.1
2023-01-09T01:48:49.000Z,3.8
2023-01-09T01:52:22.000Z,4.1
2023-01-09T01:55:54.000Z,3.5
2023-01-09T01:59:27.000Z,4.6
2023-01-09T02:03:00.000Z,2.9
2023-01-09T02:06:32.000Z,3.2
2023-01-09T02:09:24.000Z,2.7
2023-01-09T02:12:56.000Z,2.8
2023-01-09T02:16:29.000Z,3.8
2023-01-09T02:20:02.000Z,3.9
2023-01-09T02:23:34.000Z,4.7
2023-01-09T02:27:07.000Z,2.7
2023-01-09T02:30:39.000Z,2.6
2023-01-09T02:34:12.000Z,2.2
2023-01-09T02:37:45.000Z,2
2023-01-09T02:41:17.000Z,2.8
2023-01-09T02:44:50.000Z,1.8
2023-01-09T02:47:41.000Z,3.2
2023-01-09T02:51:14.000Z,2
2023-01-09T02:54:46.000Z,2.6
2023-01-09T02:58:19.000Z,3.4
2023-01-09T03:01:52.000Z,2
2023-01-09T03:05:25.000Z,2.8
2023-01-09T03:08:58.000Z,2
2023-01-09T03:12:30.000Z,3.9
2023-01-09T03:16:03.000Z,2.3
2023-01-09T03:19:36.000Z,1.7
2023-01-09T03:23:09.000Z,1.9
2023-01-09T03:26:00.000Z,1.9
2023-01-09T03:29:33.000Z,1.8
2023-01-09T03:33:05.000Z,2
2023-01-09T03:36:38.000Z,2.3
2023-01-09T03:40:10.000Z,1.3
2023-01-09T03:43:43.000Z,1.3
2023-01-09T03:47:16.000Z,0.9
2023-01-09T03:50:48.000Z,1.4
2023-01-09T03:54:21.000Z,0.9
2023-01-09T03:57:54.000Z,1.2
2023-01-09T04:01:26.000Z,0.9
2023-01-09T04:04:18.000Z,1.1
2023-01-09T04:07:50.000Z,0.9
2023-01-09T04:11:23.000Z,0.6
2023-01-09T04:14:56.000Z,1.7
2023-01-09T04:18:29.000Z,1
2023-01-09T04:22:01.000Z,0.7
2023-01-09T04:25:34.000Z,1
2023-01-09T04:29:06.000Z,0.6
2023-01-09T04:32:39.000Z,1
2023-01-09T04:36:12.000Z,1.7
2023-01-09T04:39:44.000Z,0.8
2023-01-09T04:42:36.000Z,0.7
2023-01-09T04:46:08.000Z,0.5
2023-01-09T04:49:41.000Z,0.8
2023-01-09T04:53:14.000Z,1
2023-01-09T04:56:46.000Z,0.6
2023-01-09T05:00:19.000Z,1.8
2023-01-09T05:03:52.000Z,0.7
2023-01-09T05:07:25.000Z,1.1
2023-01-09T05:10:57.000Z,0.4
2023-01-09T05:14:30.000Z,0.5
2023-01-09T05:18:02.000Z,0.7
2023-01-09T05:20:54.000Z,0.5
2023-01-09T05:24:26.000Z,1.1
2023-01-09T05:27:59.000Z,1.2
2023-01-09T05:31:31.000Z,1
2023-01-09T05:35:04.000Z,1.4
2023-01-09T05:38:37.000Z,0.9
2023-01-09T05:42:09.000Z,2.2
2023-01-09T05:45:42.000Z,1.2
2023-01-09T05:49:15.000Z,1.4
2023-01-09T05:52:47.000Z,0.9
2023-01-09T05:56:20.000Z,1.1
2023-01-09T05:59:11.000Z,0.5
2023-01-09T06:02:44.000Z,0.5
2023-01-09T06:06:17.000Z,0.6
2023-01-09T06:09:49.000Z,0.8
2023-01-09T06:13:22.000Z,1.9
2023-01-09T06:16:54.000Z,0.8
2023-01-09T06:20:27.000Z,1.6
2023-01-09T06:24:00.000Z,1.3
2023-01-09T06:27:33.000Z,0.8
2023-01-09T06:31:05.000Z,12.7
2023-01-09T06:34:38.000Z,10.8
2023-01-09T06:37:29.000Z,10.1
2023-01-09T06:41:02.000Z,1.5
2023-01-09T06:44:34.000Z,1
2023-01-09T06:48:07.000Z,0.9
2023-01-09T06:51:40.000Z,0.8
2023-01-09T06:55:12.000Z,1.9
2023-01-09T06:58:45.000Z,1.7
2023-01-09T07:02:18.000Z,1.1
2023-01-09T07:05:50.000Z,2.5
2023-01-09T07:09:23.000Z,1.5
2023-01-09T07:12:56.000Z,2.5
2023-01-09T07:15:47.000Z,1.9
2023-01-09T07:19:20.000Z,3.5
2023-01-09T07:22:52.000Z,3.1
2023-01-09T07:26:25.000Z,1.6
2023-01-09T07:29:58.000Z,1.6
2023-01-09T07:33:30.000Z,1.4
2023-01-09T07:37:03.000Z,7.9
2023-01-09T07:40:36.000Z,3.6
2023-01-09T07:44:08.000Z,5.4
2023-01-09T07:47:41.000Z,8.4
2023-01-09T07:51:14.000Z,6.4
2023-01-09T07:54:05.000Z,3.4
2023-01-09T07:57:37.000Z,3.2
2023-01-09T08:01:10.000Z,2.3
2023-01-09T08:04:43.000Z,6.1
2023-01-09T08:08:15.000Z,5.2
2023-01-09T08:11:48.000Z,4.3
2023-01-09T08:15:22.000Z,5.5
2023-01-09T08:18:55.000Z,3.6
2023-01-09T08:22:28.000Z,4.4
2023-01-09T08:26:00.000Z,4.9
2023-01-09T08:29:33.000Z,5.1
2023-01-09T08:32:24.000Z,4.4
2023-01-09T08:35:57.000Z,3.8
2023-01-09T08:39:30.000Z,5.2
2023-01-09T08:43:02.000Z,3.3
2023-01-09T08:46:35.000Z,2.5
2023-01-09T08:50:08.000Z,4
2023-01-09T08:53:40.000Z,2.3
2023-01-09T08:57:13.000Z,4.8
2023-01-09T09:00:46.000Z,4.5
2023-01-09T09:04:18.000Z,4.2
2023-01-09T09:07:51.000Z,4.1
2023-01-09T09:10:42.000Z,3.5
2023-01-09T09:14:15.000Z,4.5
2023-01-09T09:17:50.000Z,4.4
2023-01-09T09:21:23.000Z,3.2
2023-01-09T09:24:56.000Z,5.8
2023-01-09T09:28:28.000Z,3.4
2023-01-09T09:32:01.000Z,4.1
2023-01-09T09:35:33.000Z,3.6
2023-01-09T09:39:06.000Z,5.5
2023-01-09T09:42:39.000Z,5.9
2023-01-09T09:46:12.000Z,3.2
2023-01-09T09:49:03.000Z,3.8
2023-01-09T09:52:35.000Z,3.7
2023-01-09T09:56:08.000Z,5.9
2023-01-09T09:59:40.000Z,2.7
2023-01-09T10:03:13.000Z,3.8
2023-01-09T10:06:58.000Z,3.7
2023-01-09T10:10:31.000Z,4.2
2023-01-09T10:14:04.000Z,3.1
2023-01-09T10:17:49.000Z,2.3
2023-01-09T10:21:21.000Z,2.6
2023-01-09T10:24:54.000Z,3.8
2023-01-09T10:27:45.000Z,4.2
2023-01-09T10:31:18.000Z,5.1
2023-01-09T10:34:50.000Z,3.1
2023-01-09T10:38:23.000Z,3.3
2023-01-09T10:41:56.000Z,2.1
2023-01-09T10:45:28.000Z,3.8
2023-01-09T10:49:01.000Z,3.2
2023-01-09T10:52:34.000Z,4.4
2023-01-09T10:56:06.000Z,1.9
2023-01-09T10:59:39.000Z,2.7
2023-01-09T11:03:12.000Z,3.1
2023-01-09T11:06:03.000Z,5.2
2023-01-09T11:09:36.000Z,1.9
2023-01-09T11:13:09.000Z,3
2023-01-09T11:16:41.000Z,3.1
2023-01-09T11:20:14.000Z,4
2023-01-09T11:23:47.000Z,2.7
2023-01-09T11:27:19.000Z,3.4
2023-01-09T11:30:52.000Z,3.5
2023-01-09T11:34:25.000Z,4.3
2023-01-09T11:37:58.000Z,4.9
2023-01-09T11:41:31.000Z,3.8
2023-01-09T11:44:22.000Z,2.2
2023-01-09T11:48:00.000Z,2.1
2023-01-09T11:51:33.000Z,3.4
2023-01-09T11:55:05.000Z,1.7
2023-01-09T11:58:38.000Z,2.2
2023-01-09T12:02:11.000Z,1
2023-01-09T12:05:44.000Z,2.3
2023-01-09T12:09:16.000Z,4.3
2023-01-09T12:12:49.000Z,4.5
2023-01-09T12:16:22.000Z,3.7
2023-01-09T12:19:55.000Z,2.4
2023-01-09T12:22:46.000Z,1.8
2023-01-09T12:26:18.000Z,2.5
2023-01-09T12:29:51.000Z,5.5
2023-01-09T12:33:24.000Z,2.5
2023-01-09T12:36:56.000Z,2.3
2023-01-09T12:40:29.000Z,1.3
2023-01-09T12:44:02.000Z,1.9
2023-01-09T12:47:34.000Z,3
2023-01-09T12:51:10.000Z,3.6
2023-01-09T12:54:42.000Z,2.6
2023-01-09T12:58:15.000Z,2.3
2023-01-09T13:01:06.000Z,2.6
2023-01-09T13:04:39.000Z,2.4
2023-01-09T13:08:12.000Z,1.3
2023-01-09T13:11:44.000Z,6
2023-01-09T13:15:17.000Z,3.4
2023-01-09T13:18:49.000Z,1.7
2023-01-09T13:22:22.000Z,2.2
2023-01-09T13:25:55.000Z,2.8
2023-01-09T13:29:28.000Z,3.5
2023-01-09T13:33:00.000Z,2
2023-01-09T13:36:33.000Z,1.6
2023-01-09T13:39:24.000Z,2.2
2023-01-09T13:42:57.000Z,2.5
2023-01-09T13:46:32.000Z,2.5
2023-01-09T13:50:05.000Z,2.1
2023-01-09T13:53:37.000Z,2.8
2023-01-09T13:57:10.000Z,2.9
2023-01-09T14:00:42.000Z,4.3
2023-01-09T14:04:15.000Z,1.6
2023-01-09T14:11:35.000Z,2.9
2023-01-09T14:15:08.000Z,3.2
2023-01-09T14:17:59.000Z,2.3
2023-01-09T14:21:32.000Z,3
2023-01-09T14:25:30.000Z,2.2
2023-01-09T14:29:03.000Z,4.8
2023-01-09T14:32:35.000Z,4.6
2023-01-09T14:36:29.000Z,2.3
2023-01-09T14:40:01.000Z,4.4
2023-01-09T14:43:34.000Z,2.3
2023-01-09T14:47:07.000Z,2.2
2023-01-09T14:50:39.000Z,2.5
2023-01-09T14:54:12.000Z,2
2023-01-09T14:57:03.000Z,1.5
2023-01-09T15:00:36.000Z,3.1
2023-01-09T15:04:08.000Z,2.9
2023-01-09T15:07:41.000Z,3.4
2023-01-09T15:11:14.000Z,3
2023-01-09T15:14:46.000Z,6.3
2023-01-09T15:18:19.000Z,11.2
2023-01-09T15:21:52.000Z,7.2
2023-01-09T15:25:25.000Z,4.5
2023-01-09T15:29:04.000Z,5.5
2023-01-09T15:32:37.000Z,3.7
2023-01-09T15:35:28.000Z,5.7
2023-01-09T15:39:00.000Z,2.7
2023-01-09T15:42:33.000Z,2.6
2023-01-09T15:46:06.000Z,4.4
2023-01-09T15:49:38.000Z,12.7
2023-01-09T15:53:11.000Z,5.2
2023-01-09T15:56:43.000Z,5
2023-01-09T16:00:16.000Z,8.5
2023-01-09T16:03:49.000Z,1.8
2023-01-09T16:07:22.000Z,4.1
2023-01-09T16:10:54.000Z,4
2023-01-09T16:13:46.000Z,4.1
2023-01-09T16:17:18.000Z,3.8
2023-01-09T16:20:51.000Z,7.8
2023-01-09T16:24:24.000Z,3.7
2023-01-09T16:27:56.000Z,1.8
2023-01-09T16:31:29.000Z,4.1
2023-01-09T16:35:02.000Z,2.3
2023-01-09T16:38:34.000Z,4.2
2023-01-09T16:42:07.000Z,2.8
2023-01-09T16:45:40.000Z,8.7
2023-01-09T16:49:12.000Z,6.6
2023-01-09T16:52:03.000Z,3.7
2023-01-09T16:55:36.000Z,3.1
2023-01-09T16:59:09.000Z,2
2023-01-09T17:02:41.000Z,3.5
2023-01-09T17:06:14.000Z,3.2
2023-01-09T17:09:47.000Z,4.7
2023-01-09T17:13:19.000Z,2.7
2023-01-09T17:16:52.000Z,3.2
2023-01-09T17:20:25.000Z,11.7
2023-01-09T17:23:57.000Z,5
2023-01-09T17:27:30.000Z,2.1
2023-01-09T17:30:21.000Z,3.6
2023-01-09T17:33:54.000Z,3.2
2023-01-09T17:37:27.000Z,7
2023-01-09T17:40:59.000Z,4.5
2023-01-09T17:44:32.000Z,6
2023-01-09T17:48:05.000Z,3.1
2023-01-09T17:51:38.000Z,4.9
2023-01-09T17:55:10.000Z,3.9
2023-01-09T17:58:43.000Z,2.2
2023-01-09T18:02:16.000Z,5.2
2023-01-09T18:05:48.000Z,4.6
2023-01-09T18:08:40.000Z,4.9
2023-01-09T18:12:12.000Z,4.2
2023-01-09T18:15:45.000Z,4.6
2023-01-09T18:19:17.000Z,5.5
2023-01-09T18:22:50.000Z,24.9
2023-01-09T18:26:23.000Z,15
2023-01-09T18:29:55.000Z,7.6
2023-01-09T18:33:30.000Z,9.7
2023-01-09T18:37:03.000Z,7
2023-01-09T18:40:36.000Z,10.8
2023-01-09T18:44:08.000Z,10.9
2023-01-09T18:46:59.000Z,5.1
2023-01-09T18:50:32.000Z,2.6
2023-01-09T18:54:06.000Z,4.6
2023-01-09T18:57:39.000Z,2.2
2023-01-09T19:01:11.000Z,2.2
2023-01-09T19:04:44.000Z,7.5
2023-01-09T19:08:17.000Z,16
2023-01-09T19:11:49.000Z,6.9
2023-01-09T19:15:22.000Z,5.5
2023-01-09T19:18:55.000Z,5.1
2023-01-09T19:22:28.000Z,4.6
2023-01-09T19:25:19.000Z,5.9
2023-01-09T19:28:52.000Z,3.9
2023-01-09T19:32:24.000Z,4.1
2023-01-09T19:35:57.000Z,5.8
2023-01-09T19:39:30.000Z,4.3
2023-01-09T19:43:02.000Z,4.1
2023-01-09T19:46:35.000Z,4.7
2023-01-09T19:50:08.000Z,5.9
2023-01-09T19:53:40.000Z,3.9
2023-01-09T19:57:13.000Z,7.2
2023-01-09T20:00:45.000Z,5.5
2023-01-09T20:03:36.000Z,5.9
2023-01-09T20:07:09.000Z,12.8
2023-01-09T20:10:42.000Z,10.4
2023-01-09T20:14:14.000Z,7.6
2023-01-09T20:17:47.000Z,8.2
2023-01-09T20:21:20.000Z,6.9
2023-01-09T20:24:52.000Z,7.5
2023-01-09T20:28:25.000Z,6.4
2023-01-09T20:31:58.000Z,6
2023-01-09T20:35:30.000Z,6.8
2023-01-09T20:39:03.000Z,6.3
2023-01-09T20:41:54.000Z,7.9
2023-01-09T20:45:27.000Z,7
2023-01-09T20:48:59.000Z,6.4
2023-01-09T20:52:32.000Z,5.6
2023-01-09T20:56:04.000Z,4.8
2023-01-09T20:59:37.000Z,5.8
2023-01-09T21:03:10.000Z,7.1
2023-01-09T21:06:43.000Z,6.9
2023-01-09T21:10:15.000Z,6.1
2023-01-09T21:13:48.000Z,4.6
2023-01-09T21:17:21.000Z,6.7
2023-01-09T21:20:12.000Z,6.1
2023-01-09T21:23:45.000Z,9.6
2023-01-09T21:27:17.000Z,7.9
2023-01-09T21:30:50.000Z,39
2023-01-09T21:34:22.000Z,10.9
2023-01-09T21:37:55.000Z,10.9
2023-01-09T21:41:28.000Z,17.1
2023-01-09T21:45:00.000Z,31.7
2023-01-09T21:48:33.000Z,36.8
2023-01-09T21:52:06.000Z,41.8
2023-01-09T21:55:38.000Z,27
2023-01-09T21:58:29.000Z,17.6
2023-01-09T22:02:02.000Z,13.2
2023-01-09T22:05:34.000Z,9.1
2023-01-09T22:09:07.000Z,13.2
2023-01-09T22:12:40.000Z,23.8
2023-01-09T22:16:12.000Z,31.7
2023-01-09T22:19:45.000Z,15.1
2023-01-09T22:23:18.000Z,20.4
2023-01-09T22:26:50.000Z,13.6
2023-01-09T22:30:23.000Z,8.3
2023-01-09T22:33:56.000Z,14.1
2023-01-09T22:36:47.000Z,11.7
2023-01-09T22:40:20.000Z,13.1
2023-01-09T22:43:52.000Z,11.6
2023-01-09T22:47:25.000Z,5.6
2023-01-09T22:50:58.000Z,6.2
2023-01-09T22:54:30.000Z,8.8
2023-01-09T22:58:03.000Z,7.6
2023-01-09T23:01:36.000Z,7.7
2023-01-09T23:05:09.000Z,7.8
2023-01-09T23:08:41.000Z,5.9
2023-01-09T23:12:14.000Z,7.3
2023-01-09T23:15:05.000Z,8.7
2023-01-09T23:18:38.000Z,4.6
2023-01-09T23:22:11.000Z,5.1
2023-01-09T23:25:43.000Z,4.3
2023-01-09T23:29:16.000Z,6.9
2023-01-09T23:32:49.000Z,4.5
2023-01-09T23:36:21.000Z,5.7
2023-01-09T23:39:54.000Z,4.9
2023-01-09T23:43:26.000Z,6.3
2023-01-09T23:46:59.000Z,7.1
2023-01-09T23:50:32.000Z,6.6
2023-01-09T23:53:23.000Z,5.8
2023-01-09T23:56:55.000Z,5.7
